sensor_id;sensor_type;location;lat;lon;timestamp;P1;durP1;ratioP1;P2;durP2;ratioP2
16890;SDS011;8562;52.246;20.966;2022-11-13T00:00:50;29.17;;;16.27;;
16890;SDS011;8562;52.246;20.966;2022-11-13T00:03:34;28.50;;;15.97;;
16890;SDS011;8562;52.246;20.966;2022-11-13T00:06:19;30.83;;;15.07;;
16890;SDS011;8562;52.246;20.966;2022-11-13T00:09:04;25.37;;;14.90;;
16890;SDS011;8562;52.246;20.966;2022-11-13T00:11:48;30.20;;;15.93;;
16890;SDS011;8562;52.246;20.966;2022-11-13T00:14:33;26.23;;;14.83;;
16890;SDS011;8562;52.246;20.966;2022-11-13T00:17:17;26.23;;;14.47;;
16890;SDS011;8562;52.246;20.966;2022-11-13T00:20:02;24.03;;;13.80;;
16890;SDS011;8562;52.246;20.966;2022-11-13T00:22:47;32.93;;;14.37;;
16890;SDS011;8562;52.246;20.966;2022-11-13T00:25:33;23.17;;;13.50;;
16890;SDS011;8562;52.246;20.966;2022-11-13T00:28:18;25.20;;;13.73;;
16890;SDS011;8562;52.246;20.966;2022-11-13T00:31:03;26.50;;;15.70;;
16890;SDS011;8562;52.246;20.966;2022-11-13T00:33:48;24.93;;;14.67;;
16890;SDS011;8562;52.246;20.966;2022-11-13T00:36:33;24.30;;;14.40;;
16890;SDS011;8562;52.246;20.966;2022-11-13T00:39:18;23.03;;;14.73;;
16890;SDS011;8562;52.246;20.966;2022-11-13T00:42:02;24.03;;;14.43;;
16890;SDS011;8562;52.246;20.966;2022-11-13T00:44:47;27.80;;;15.87;;
16890;SDS011;8562;52.246;20.966;2022-11-13T00:47:31;25.80;;;14.80;;
16890;SDS011;8562;52.246;20.966;2022-11-13T00:50:16;24.23;;;14.27;;
16890;SDS011;8562;52.246;20.966;2022-11-13T00:53:00;26.70;;;13.10;;
16890;SDS011;8562;52.246;20.966;2022-11-13T00:55:45;21.90;;;13.33;;
16890;SDS011;8562;52.246;20.966;2022-11-13T00:58:30;26.20;;;13.63;;
16890;SDS011;8562;52.246;20.966;2022-11-13T01:01:16;26.53;;;13.57;;
16890;SDS011;8562;52.246;20.966;2022-11-13T01:04:01;26.40;;;12.73;;
16890;SDS011;8562;52.246;20.966;2022-11-13T01:06:46;26.43;;;13.20;;
16890;SDS011;8562;52.246;20.966;2022-11-13T01:09:31;25.23;;;13.67;;
16890;SDS011;8562;52.246;20.966;2022-11-13T01:12:15;25.73;;;12.57;;
16890;SDS011;8562;52.246;20.966;2022-11-13T01:15:00;22.03;;;13.07;;
16890;SDS011;8562;52.246;20.966;2022-11-13T01:17:45;21.37;;;12.80;;
16890;SDS011;8562;52.246;20.966;2022-11-13T01:20:29;19.20;;;11.97;;
16890;SDS011;8562;52.246;20.966;2022-11-13T01:23:15;22.83;;;13.47;;
16890;SDS011;8562;52.246;20.966;2022-11-13T01:29:17;19.90;;;11.40;;
16890;SDS011;8562;52.246;20.966;2022-11-13T01:32:02;25.63;;;13.67;;
16890;SDS011;8562;52.246;20.966;2022-11-13T01:34:47;19.77;;;11.63;;
16890;SDS011;8562;52.246;20.966;2022-11-13T01:37:31;20.07;;;11.97;;
16890;SDS011;8562;52.246;20.966;2022-11-13T01:40:16;24.80;;;13.67;;
16890;SDS011;8562;52.246;20.966;2022-11-13T01:43:12;21.17;;;12.23;;
16890;SDS011;8562;52.246;20.966;2022-11-13T01:51:37;20.67;;;12.33;;
16890;SDS011;8562;52.246;20.966;2022-11-13T01:54:30;18.77;;;11.67;;
16890;SDS011;8562;52.246;20.966;2022-11-13T01:57:15;22.50;;;12.50;;
16890;SDS011;8562;52.246;20.966;2022-11-13T02:00:02;24.53;;;13.17;;
16890;SDS011;8562;52.246;20.966;2022-11-13T02:02:47;23.37;;;12.23;;
16890;SDS011;8562;52.246;20.966;2022-11-13T02:05:32;20.53;;;11.50;;
16890;SDS011;8562;52.246;20.966;2022-11-13T02:08:16;22.60;;;12.07;;
16890;SDS011;8562;52.246;20.966;2022-11-13T02:11:01;22.80;;;12.07;;
16890;SDS011;8562;52.246;20.966;2022-11-13T02:13:46;25.67;;;12.60;;
16890;SDS011;8562;52.246;20.966;2022-11-13T02:16:31;23.07;;;13.10;;
16890;SDS011;8562;52.246;20.966;2022-11-13T02:19:22;20.80;;;12.43;;
16890;SDS011;8562;52.246;20.966;2022-11-13T02:24:53;22.70;;;12.87;;
16890;SDS011;8562;52.246;20.966;2022-11-13T02:27:46;21.40;;;11.70;;
16890;SDS011;8562;52.246;20.966;2022-11-13T02:30:32;19.17;;;11.60;;
16890;SDS011;8562;52.246;20.966;2022-11-13T02:33:36;21.80;;;12.97;;
16890;SDS011;8562;52.246;20.966;2022-11-13T02:36:20;21.97;;;11.17;;
16890;SDS011;8562;52.246;20.966;2022-11-13T02:39:08;23.17;;;11.73;;
16890;SDS011;8562;52.246;20.966;2022-11-13T02:41:53;23.17;;;11.87;;
16890;SDS011;8562;52.246;20.966;2022-11-13T02:44:37;19.40;;;10.90;;
16890;SDS011;8562;52.246;20.966;2022-11-13T02:47:22;22.80;;;12.43;;
16890;SDS011;8562;52.246;20.966;2022-11-13T02:50:07;19.73;;;11.10;;
16890;SDS011;8562;52.246;20.966;2022-11-13T02:52:53;19.47;;;11.03;;
16890;SDS011;8562;52.246;20.966;2022-11-13T02:55:37;25.40;;;11.73;;
16890;SDS011;8562;52.246;20.966;2022-11-13T02:58:21;16.43;;;10.80;;
16890;SDS011;8562;52.246;20.966;2022-11-13T03:01:06;20.80;;;11.53;;
16890;SDS011;8562;52.246;20.966;2022-11-13T03:03:51;20.50;;;12.17;;
16890;SDS011;8562;52.246;20.966;2022-11-13T03:06:35;20.23;;;10.83;;
16890;SDS011;8562;52.246;20.966;2022-11-13T03:09:20;16.10;;;10.23;;
16890;SDS011;8562;52.246;20.966;2022-11-13T03:12:05;15.70;;;10.07;;
16890;SDS011;8562;52.246;20.966;2022-11-13T03:14:50;17.87;;;9.40;;
16890;SDS011;8562;52.246;20.966;2022-11-13T03:17:35;20.90;;;10.90;;
16890;SDS011;8562;52.246;20.966;2022-11-13T03:20:19;20.53;;;10.63;;
16890;SDS011;8562;52.246;20.966;2022-11-13T03:23:04;21.00;;;10.77;;
16890;SDS011;8562;52.246;20.966;2022-11-13T03:25:49;22.30;;;10.67;;
16890;SDS011;8562;52.246;20.966;2022-11-13T03:28:34;18.97;;;10.20;;
16890;SDS011;8562;52.246;20.966;2022-11-13T03:31:19;22.53;;;11.33;;
16890;SDS011;8562;52.246;20.966;2022-11-13T03:34:04;23.80;;;10.87;;
16890;SDS011;8562;52.246;20.966;2022-11-13T03:36:48;20.47;;;11.33;;
16890;SDS011;8562;52.246;20.966;2022-11-13T03:39:33;27.03;;;12.23;;
16890;SDS011;8562;52.246;20.966;2022-11-13T03:42:17;22.90;;;11.23;;
16890;SDS011;8562;52.246;20.966;2022-11-13T03:45:02;19.57;;;9.80;;
16890;SDS011;8562;52.246;20.966;2022-11-13T03:47:47;22.07;;;11.30;;
16890;SDS011;8562;52.246;20.966;2022-11-13T03:50:32;19.47;;;10.93;;
16890;SDS011;8562;52.246;20.966;2022-11-13T03:53:16;21.53;;;10.50;;
16890;SDS011;8562;52.246;20.966;2022-11-13T03:56:01;23.13;;;11.63;;
16890;SDS011;8562;52.246;20.966;2022-11-13T03:58:45;24.00;;;12.40;;
16890;SDS011;8562;52.246;20.966;2022-11-13T04:01:30;24.27;;;11.80;;
16890;SDS011;8562;52.246;20.966;2022-11-13T04:04:14;19.23;;;11.67;;
16890;SDS011;8562;52.246;20.966;2022-11-13T04:06:59;18.70;;;10.63;;
16890;SDS011;8562;52.246;20.966;2022-11-13T04:09:44;21.33;;;11.77;;
16890;SDS011;8562;52.246;20.966;2022-11-13T04:12:28;18.47;;;10.83;;
16890;SDS011;8562;52.246;20.966;2022-11-13T04:15:13;17.57;;;10.40;;
16890;SDS011;8562;52.246;20.966;2022-11-13T04:17:57;18.63;;;11.23;;
16890;SDS011;8562;52.246;20.966;2022-11-13T04:20:42;19.87;;;12.43;;
16890;SDS011;8562;52.246;20.966;2022-11-13T04:23:26;27.03;;;11.57;;
16890;SDS011;8562;52.246;20.966;2022-11-13T04:26:11;21.03;;;11.30;;
16890;SDS011;8562;52.246;20.966;2022-11-13T04:28:55;20.37;;;11.73;;
16890;SDS011;8562;52.246;20.966;2022-11-13T04:31:40;22.60;;;10.97;;
16890;SDS011;8562;52.246;20.966;2022-11-13T04:34:24;21.60;;;11.43;;
16890;SDS011;8562;52.246;20.966;2022-11-13T04:37:09;20.67;;;11.30;;
16890;SDS011;8562;52.246;20.966;2022-11-13T04:39:54;19.27;;;10.50;;
16890;SDS011;8562;52.246;20.966;2022-11-13T04:42:38;19.30;;;10.47;;
16890;SDS011;8562;52.246;20.966;2022-11-13T04:45:32;21.97;;;10.47;;
16890;SDS011;8562;52.246;20.966;2022-11-13T04:48:17;25.07;;;12.50;;
16890;SDS011;8562;52.246;20.966;2022-11-13T04:51:01;23.00;;;11.97;;
16890;SDS011;8562;52.246;20.966;2022-11-13T04:53:46;21.07;;;11.50;;
16890;SDS011;8562;52.246;20.966;2022-11-13T04:56:30;22.17;;;10.53;;
16890;SDS011;8562;52.246;20.966;2022-11-13T04:59:15;24.53;;;12.03;;
16890;SDS011;8562;52.246;20.966;2022-11-13T05:02:00;27.03;;;12.40;;
16890;SDS011;8562;52.246;20.966;2022-11-13T05:04:44;24.20;;;11.17;;
16890;SDS011;8562;52.246;20.966;2022-11-13T05:07:29;22.00;;;10.93;;
16890;SDS011;8562;52.246;20.966;2022-11-13T05:10:13;21.43;;;11.67;;
16890;SDS011;8562;52.246;20.966;2022-11-13T05:12:58;24.97;;;10.60;;
16890;SDS011;8562;52.246;20.966;2022-11-13T05:15:42;23.30;;;11.83;;
16890;SDS011;8562;52.246;20.966;2022-11-13T05:18:27;19.77;;;10.47;;
16890;SDS011;8562;52.246;20.966;2022-11-13T05:21:11;21.97;;;10.73;;
16890;SDS011;8562;52.246;20.966;2022-11-13T05:23:56;20.70;;;9.67;;
16890;SDS011;8562;52.246;20.966;2022-11-13T05:26:41;20.03;;;9.93;;
16890;SDS011;8562;52.246;20.966;2022-11-13T05:29:25;20.10;;;9.47;;
16890;SDS011;8562;52.246;20.966;2022-11-13T05:32:09;23.37;;;10.07;;
16890;SDS011;8562;52.246;20.966;2022-11-13T05:34:54;18.33;;;10.43;;
16890;SDS011;8562;52.246;20.966;2022-11-13T05:37:39;22.17;;;11.53;;
16890;SDS011;8562;52.246;20.966;2022-11-13T05:40:23;19.43;;;9.53;;
16890;SDS011;8562;52.246;20.966;2022-11-13T05:43:08;21.47;;;11.53;;
16890;SDS011;8562;52.246;20.966;2022-11-13T05:45:58;19.13;;;9.97;;
16890;SDS011;8562;52.246;20.966;2022-11-13T05:48:43;20.27;;;9.73;;
16890;SDS011;8562;52.246;20.966;2022-11-13T05:51:29;18.43;;;9.60;;
16890;SDS011;8562;52.246;20.966;2022-11-13T05:54:14;20.80;;;10.70;;
16890;SDS011;8562;52.246;20.966;2022-11-13T05:56:58;21.43;;;11.70;;
16890;SDS011;8562;52.246;20.966;2022-11-13T05:59:43;17.97;;;10.23;;
16890;SDS011;8562;52.246;20.966;2022-11-13T06:02:27;21.10;;;9.97;;
16890;SDS011;8562;52.246;20.966;2022-11-13T06:05:12;19.60;;;10.03;;
16890;SDS011;8562;52.246;20.966;2022-11-13T06:07:56;21.70;;;10.90;;
16890;SDS011;8562;52.246;20.966;2022-11-13T06:10:41;27.10;;;11.40;;
16890;SDS011;8562;52.246;20.966;2022-11-13T06:13:25;22.87;;;11.70;;
16890;SDS011;8562;52.246;20.966;2022-11-13T06:16:15;23.57;;;11.57;;
16890;SDS011;8562;52.246;20.966;2022-11-13T06:19:00;21.90;;;11.37;;
16890;SDS011;8562;52.246;20.966;2022-11-13T06:21:45;25.80;;;10.87;;
16890;SDS011;8562;52.246;20.966;2022-11-13T06:24:30;23.33;;;12.07;;
16890;SDS011;8562;52.246;20.966;2022-11-13T06:27:14;22.77;;;11.20;;
16890;SDS011;8562;52.246;20.966;2022-11-13T06:29:59;19.80;;;12.07;;
16890;SDS011;8562;52.246;20.966;2022-11-13T06:32:43;22.73;;;10.57;;
16890;SDS011;8562;52.246;20.966;2022-11-13T06:35:28;27.50;;;12.20;;
16890;SDS011;8562;52.246;20.966;2022-11-13T06:38:13;23.80;;;12.60;;
16890;SDS011;8562;52.246;20.966;2022-11-13T06:40:57;23.93;;;10.67;;
16890;SDS011;8562;52.246;20.966;2022-11-13T06:43:42;24.03;;;11.17;;
16890;SDS011;8562;52.246;20.966;2022-11-13T06:46:27;19.73;;;10.10;;
16890;SDS011;8562;52.246;20.966;2022-11-13T06:49:12;16.83;;;9.40;;
16890;SDS011;8562;52.246;20.966;2022-11-13T06:51:56;24.17;;;11.30;;
16890;SDS011;8562;52.246;20.966;2022-11-13T06:54:41;21.83;;;11.23;;
16890;SDS011;8562;52.246;20.966;2022-11-13T06:57:26;18.33;;;8.73;;
16890;SDS011;8562;52.246;20.966;2022-11-13T07:00:10;20.27;;;9.53;;
16890;SDS011;8562;52.246;20.966;2022-11-13T07:02:55;20.20;;;10.13;;
16890;SDS011;8562;52.246;20.966;2022-11-13T07:05:39;15.47;;;8.70;;
16890;SDS011;8562;52.246;20.966;2022-11-13T07:08:24;13.00;;;8.00;;
16890;SDS011;8562;52.246;20.966;2022-11-13T07:11:09;16.97;;;8.83;;
16890;SDS011;8562;52.246;20.966;2022-11-13T07:13:54;15.47;;;8.73;;
16890;SDS011;8562;52.246;20.966;2022-11-13T07:16:39;22.30;;;9.83;;
16890;SDS011;8562;52.246;20.966;2022-11-13T07:19:23;14.83;;;7.90;;
16890;SDS011;8562;52.246;20.966;2022-11-13T07:22:08;21.67;;;10.27;;
16890;SDS011;8562;52.246;20.966;2022-11-13T07:24:52;19.37;;;9.23;;
16890;SDS011;8562;52.246;20.966;2022-11-13T07:27:37;16.80;;;9.17;;
16890;SDS011;8562;52.246;20.966;2022-11-13T07:30:21;17.10;;;9.53;;
16890;SDS011;8562;52.246;20.966;2022-11-13T07:33:07;17.53;;;8.93;;
16890;SDS011;8562;52.246;20.966;2022-11-13T07:35:52;18.87;;;9.07;;
16890;SDS011;8562;52.246;20.966;2022-11-13T07:38:37;16.63;;;8.27;;
16890;SDS011;8562;52.246;20.966;2022-11-13T07:41:22;15.57;;;7.87;;
16890;SDS011;8562;52.246;20.966;2022-11-13T07:44:06;13.20;;;6.77;;
16890;SDS011;8562;52.246;20.966;2022-11-13T07:46:51;11.03;;;6.07;;
16890;SDS011;8562;52.246;20.966;2022-11-13T07:49:35;13.40;;;6.77;;
16890;SDS011;8562;52.246;20.966;2022-11-13T07:52:20;10.90;;;6.30;;
16890;SDS011;8562;52.246;20.966;2022-11-13T07:55:04;10.57;;;6.03;;
16890;SDS011;8562;52.246;20.966;2022-11-13T07:57:49;12.73;;;6.53;;
16890;SDS011;8562;52.246;20.966;2022-11-13T08:00:34;15.13;;;7.50;;
16890;SDS011;8562;52.246;20.966;2022-11-13T08:03:19;11.97;;;6.57;;
16890;SDS011;8562;52.246;20.966;2022-11-13T08:06:04;11.47;;;6.77;;
16890;SDS011;8562;52.246;20.966;2022-11-13T08:08:49;17.60;;;6.90;;
16890;SDS011;8562;52.246;20.966;2022-11-13T08:11:34;16.47;;;7.87;;
16890;SDS011;8562;52.246;20.966;2022-11-13T08:14:18;14.73;;;7.53;;
16890;SDS011;8562;52.246;20.966;2022-11-13T08:17:03;15.50;;;7.87;;
16890;SDS011;8562;52.246;20.966;2022-11-13T08:19:47;13.33;;;8.60;;
16890;SDS011;8562;52.246;20.966;2022-11-13T08:22:32;12.13;;;7.83;;
16890;SDS011;8562;52.246;20.966;2022-11-13T08:25:17;13.57;;;7.43;;
16890;SDS011;8562;52.246;20.966;2022-11-13T08:28:02;15.17;;;7.87;;
16890;SDS011;8562;52.246;20.966;2022-11-13T08:30:48;13.03;;;7.17;;
16890;SDS011;8562;52.246;20.966;2022-11-13T08:33:32;13.17;;;7.23;;
16890;SDS011;8562;52.246;20.966;2022-11-13T08:36:17;12.03;;;6.27;;
16890;SDS011;8562;52.246;20.966;2022-11-13T08:39:01;11.90;;;5.83;;
16890;SDS011;8562;52.246;20.966;2022-11-13T08:41:46;13.60;;;6.87;;
16890;SDS011;8562;52.246;20.966;2022-11-13T08:44:30;11.97;;;6.93;;
16890;SDS011;8562;52.246;20.966;2022-11-13T08:47:15;11.87;;;6.43;;
16890;SDS011;8562;52.246;20.966;2022-11-13T08:49:59;10.93;;;6.70;;
16890;SDS011;8562;52.246;20.966;2022-11-13T08:52:44;11.33;;;6.43;;
16890;SDS011;8562;52.246;20.966;2022-11-13T08:55:29;9.67;;;6.60;;
16890;SDS011;8562;52.246;20.966;2022-11-13T08:58:15;13.80;;;7.20;;
16890;SDS011;8562;52.246;20.966;2022-11-13T09:01:00;11.27;;;6.10;;
16890;SDS011;8562;52.246;20.966;2022-11-13T09:03:46;12.53;;;6.27;;
16890;SDS011;8562;52.246;20.966;2022-11-13T09:06:32;9.97;;;6.10;;
16890;SDS011;8562;52.246;20.966;2022-11-13T09:09:17;14.87;;;7.27;;
16890;SDS011;8562;52.246;20.966;2022-11-13T09:12:02;15.13;;;7.67;;
16890;SDS011;8562;52.246;20.966;2022-11-13T09:14:47;14.13;;;6.40;;
16890;SDS011;8562;52.246;20.966;2022-11-13T09:17:31;14.03;;;6.77;;
16890;SDS011;8562;52.246;20.966;2022-11-13T09:20:16;12.37;;;6.80;;
16890;SDS011;8562;52.246;20.966;2022-11-13T09:23:01;13.17;;;6.37;;
16890;SDS011;8562;52.246;20.966;2022-11-13T09:25:47;11.03;;;6.10;;
16890;SDS011;8562;52.246;20.966;2022-11-13T09:28:31;8.67;;;5.03;;
16890;SDS011;8562;52.246;20.966;2022-11-13T09:31:16;8.07;;;5.63;;
16890;SDS011;8562;52.246;20.966;2022-11-13T09:34:00;7.80;;;5.07;;
16890;SDS011;8562;52.246;20.966;2022-11-13T09:36:45;10.80;;;5.53;;
16890;SDS011;8562;52.246;20.966;2022-11-13T09:39:30;11.07;;;5.60;;
16890;SDS011;8562;52.246;20.966;2022-11-13T09:42:23;11.47;;;6.00;;
16890;SDS011;8562;52.246;20.966;2022-11-13T09:45:12;11.00;;;5.10;;
16890;SDS011;8562;52.246;20.966;2022-11-13T09:48:00;9.30;;;5.40;;
16890;SDS011;8562;52.246;20.966;2022-11-13T09:50:46;9.43;;;4.80;;
16890;SDS011;8562;52.246;20.966;2022-11-13T09:53:33;8.47;;;4.73;;
16890;SDS011;8562;52.246;20.966;2022-11-13T09:59:46;9.53;;;5.47;;
16890;SDS011;8562;52.246;20.966;2022-11-13T10:08:43;6.50;;;3.63;;
16890;SDS011;8562;52.246;20.966;2022-11-13T10:11:34;10.80;;;4.60;;
16890;SDS011;8562;52.246;20.966;2022-11-13T10:14:25;8.27;;;3.80;;
16890;SDS011;8562;52.246;20.966;2022-11-13T10:20:19;9.80;;;5.27;;
16890;SDS011;8562;52.246;20.966;2022-11-13T10:23:07;7.63;;;4.37;;
16890;SDS011;8562;52.246;20.966;2022-11-13T10:25:52;6.20;;;3.53;;
16890;SDS011;8562;52.246;20.966;2022-11-13T10:28:39;7.13;;;3.83;;
16890;SDS011;8562;52.246;20.966;2022-11-13T10:31:25;7.03;;;4.13;;
16890;SDS011;8562;52.246;20.966;2022-11-13T10:34:09;6.27;;;3.37;;
16890;SDS011;8562;52.246;20.966;2022-11-13T10:39:40;6.33;;;4.57;;
16890;SDS011;8562;52.246;20.966;2022-11-13T10:42:31;8.60;;;4.30;;
16890;SDS011;8562;52.246;20.966;2022-11-13T10:45:20;6.80;;;4.50;;
16890;SDS011;8562;52.246;20.966;2022-11-13T10:48:05;6.70;;;5.13;;
16890;SDS011;8562;52.246;20.966;2022-11-13T10:50:54;8.47;;;4.33;;
16890;SDS011;8562;52.246;20.966;2022-11-13T10:53:40;10.10;;;5.37;;
16890;SDS011;8562;52.246;20.966;2022-11-13T10:56:26;7.00;;;4.83;;
16890;SDS011;8562;52.246;20.966;2022-11-13T10:59:13;16.07;;;5.17;;
16890;SDS011;8562;52.246;20.966;2022-11-13T11:02:07;16.07;;;5.27;;
16890;SDS011;8562;52.246;20.966;2022-11-13T11:05:03;11.10;;;5.37;;
16890;SDS011;8562;52.246;20.966;2022-11-13T11:07:48;8.73;;;4.77;;
16890;SDS011;8562;52.246;20.966;2022-11-13T11:10:34;10.20;;;4.97;;
16890;SDS011;8562;52.246;20.966;2022-11-13T11:13:20;9.90;;;5.40;;
16890;SDS011;8562;52.246;20.966;2022-11-13T11:16:06;10.67;;;5.77;;
16890;SDS011;8562;52.246;20.966;2022-11-13T11:18:52;9.13;;;5.23;;
16890;SDS011;8562;52.246;20.966;2022-11-13T11:21:39;10.03;;;5.07;;
16890;SDS011;8562;52.246;20.966;2022-11-13T11:24:26;9.83;;;4.80;;
16890;SDS011;8562;52.246;20.966;2022-11-13T11:27:18;9.57;;;5.70;;
16890;SDS011;8562;52.246;20.966;2022-11-13T11:30:08;8.40;;;4.93;;
16890;SDS011;8562;52.246;20.966;2022-11-13T11:33:03;9.70;;;5.27;;
16890;SDS011;8562;52.246;20.966;2022-11-13T11:35:59;8.93;;;5.60;;
16890;SDS011;8562;52.246;20.966;2022-11-13T11:38:53;7.93;;;4.57;;
16890;SDS011;8562;52.246;20.966;2022-11-13T11:41:43;11.10;;;5.90;;
16890;SDS011;8562;52.246;20.966;2022-11-13T11:47:17;8.47;;;5.33;;
16890;SDS011;8562;52.246;20.966;2022-11-13T11:50:02;10.00;;;6.10;;
16890;SDS011;8562;52.246;20.966;2022-11-13T11:58:33;13.23;;;6.47;;
16890;SDS011;8562;52.246;20.966;2022-11-13T12:01:37;14.10;;;6.23;;
16890;SDS011;8562;52.246;20.966;2022-11-13T12:04:45;10.40;;;4.93;;
16890;SDS011;8562;52.246;20.966;2022-11-13T12:10:25;9.73;;;5.40;;
16890;SDS011;8562;52.246;20.966;2022-11-13T12:24:40;10.60;;;5.00;;
16890;SDS011;8562;52.246;20.966;2022-11-13T12:30:22;8.53;;;5.30;;
16890;SDS011;8562;52.246;20.966;2022-11-13T12:36:00;9.07;;;4.90;;
16890;SDS011;8562;52.246;20.966;2022-11-13T12:38:52;8.50;;;5.63;;
16890;SDS011;8562;52.246;20.966;2022-11-13T12:41:41;8.10;;;5.13;;
16890;SDS011;8562;52.246;20.966;2022-11-13T12:44:28;13.07;;;5.00;;
16890;SDS011;8562;52.246;20.966;2022-11-13T12:47:13;12.33;;;5.97;;
16890;SDS011;8562;52.246;20.966;2022-11-13T12:50:00;9.00;;;5.40;;
16890;SDS011;8562;52.246;20.966;2022-11-13T12:52:56;10.87;;;5.73;;
16890;SDS011;8562;52.246;20.966;2022-11-13T12:55:40;9.77;;;4.97;;
16890;SDS011;8562;52.246;20.966;2022-11-13T12:58:26;10.73;;;5.37;;
16890;SDS011;8562;52.246;20.966;2022-11-13T13:07:10;10.83;;;5.63;;
16890;SDS011;8562;52.246;20.966;2022-11-13T13:15:57;13.63;;;6.63;;
16890;SDS011;8562;52.246;20.966;2022-11-13T13:18:42;11.73;;;6.10;;
16890;SDS011;8562;52.246;20.966;2022-11-13T13:21:27;13.27;;;6.33;;
16890;SDS011;8562;52.246;20.966;2022-11-13T13:27:19;11.77;;;5.83;;
16890;SDS011;8562;52.246;20.966;2022-11-13T13:30:18;9.30;;;5.53;;
16890;SDS011;8562;52.246;20.966;2022-11-13T13:33:13;8.67;;;5.93;;
16890;SDS011;8562;52.246;20.966;2022-11-13T13:38:46;10.00;;;6.13;;
16890;SDS011;8562;52.246;20.966;2022-11-13T13:47:37;8.73;;;5.90;;
16890;SDS011;8562;52.246;20.966;2022-11-13T13:50:27;10.07;;;5.40;;
16890;SDS011;8562;52.246;20.966;2022-11-13T13:53:15;10.43;;;5.47;;
16890;SDS011;8562;52.246;20.966;2022-11-13T13:56:01;8.43;;;5.77;;
16890;SDS011;8562;52.246;20.966;2022-11-13T13:58:46;12.97;;;6.40;;
16890;SDS011;8562;52.246;20.966;2022-11-13T14:01:32;11.17;;;5.73;;
16890;SDS011;8562;52.246;20.966;2022-11-13T14:04:18;10.00;;;6.43;;
16890;SDS011;8562;52.246;20.966;2022-11-13T14:07:04;11.07;;;6.93;;
16890;SDS011;8562;52.246;20.966;2022-11-13T14:10:02;8.87;;;6.20;;
16890;SDS011;8562;52.246;20.966;2022-11-13T14:12:47;11.73;;;7.50;;
16890;SDS011;8562;52.246;20.966;2022-11-13T14:15:33;10.03;;;6.83;;
16890;SDS011;8562;52.246;20.966;2022-11-13T14:18:18;13.30;;;7.03;;
16890;SDS011;8562;52.246;20.966;2022-11-13T14:21:05;10.53;;;6.57;;
16890;SDS011;8562;52.246;20.966;2022-11-13T14:23:53;12.47;;;7.13;;
16890;SDS011;8562;52.246;20.966;2022-11-13T14:26:38;11.83;;;6.37;;
16890;SDS011;8562;52.246;20.966;2022-11-13T14:29:28;12.67;;;6.73;;
16890;SDS011;8562;52.246;20.966;2022-11-13T14:32:16;14.03;;;6.87;;
16890;SDS011;8562;52.246;20.966;2022-11-13T14:35:02;10.97;;;6.40;;
16890;SDS011;8562;52.246;20.966;2022-11-13T14:37:48;10.13;;;6.20;;
16890;SDS011;8562;52.246;20.966;2022-11-13T14:40:34;9.93;;;6.43;;
16890;SDS011;8562;52.246;20.966;2022-11-13T14:43:21;12.00;;;7.30;;
16890;SDS011;8562;52.246;20.966;2022-11-13T14:46:22;16.60;;;6.83;;
16890;SDS011;8562;52.246;20.966;2022-11-13T14:49:12;9.93;;;6.37;;
16890;SDS011;8562;52.246;20.966;2022-11-13T14:51:58;13.20;;;7.70;;
16890;SDS011;8562;52.246;20.966;2022-11-13T14:54:44;12.63;;;7.70;;
16890;SDS011;8562;52.246;20.966;2022-11-13T14:57:29;10.13;;;7.03;;
16890;SDS011;8562;52.246;20.966;2022-11-13T15:00:17;12.87;;;7.00;;
16890;SDS011;8562;52.246;20.966;2022-11-13T15:03:03;12.57;;;6.47;;
16890;SDS011;8562;52.246;20.966;2022-11-13T15:05:48;12.77;;;7.33;;
16890;SDS011;8562;52.246;20.966;2022-11-13T15:08:34;15.90;;;7.10;;
16890;SDS011;8562;52.246;20.966;2022-11-13T15:11:20;9.97;;;6.27;;
16890;SDS011;8562;52.246;20.966;2022-11-13T15:14:09;10.33;;;7.17;;
16890;SDS011;8562;52.246;20.966;2022-11-13T15:16:54;10.07;;;6.50;;
16890;SDS011;8562;52.246;20.966;2022-11-13T15:19:39;12.67;;;7.80;;
16890;SDS011;8562;52.246;20.966;2022-11-13T15:22:24;14.30;;;8.03;;
16890;SDS011;8562;52.246;20.966;2022-11-13T15:25:12;15.97;;;8.10;;
16890;SDS011;8562;52.246;20.966;2022-11-13T15:27:57;13.37;;;8.17;;
16890;SDS011;8562;52.246;20.966;2022-11-13T15:30:42;12.07;;;7.17;;
16890;SDS011;8562;52.246;20.966;2022-11-13T15:33:27;18.00;;;8.80;;
16890;SDS011;8562;52.246;20.966;2022-11-13T15:36:11;16.13;;;8.33;;
16890;SDS011;8562;52.246;20.966;2022-11-13T15:38:56;14.97;;;7.87;;
16890;SDS011;8562;52.246;20.966;2022-11-13T15:41:41;14.83;;;7.83;;
16890;SDS011;8562;52.246;20.966;2022-11-13T15:44:26;14.00;;;8.03;;
16890;SDS011;8562;52.246;20.966;2022-11-13T15:47:30;15.90;;;9.17;;
16890;SDS011;8562;52.246;20.966;2022-11-13T15:50:16;15.03;;;8.17;;
16890;SDS011;8562;52.246;20.966;2022-11-13T15:53:00;17.03;;;9.13;;
16890;SDS011;8562;52.246;20.966;2022-11-13T15:55:48;15.07;;;9.07;;
16890;SDS011;8562;52.246;20.966;2022-11-13T15:58:33;15.07;;;8.57;;
16890;SDS011;8562;52.246;20.966;2022-11-13T16:01:17;15.07;;;9.53;;
16890;SDS011;8562;52.246;20.966;2022-11-13T16:04:02;17.73;;;9.10;;
16890;SDS011;8562;52.246;20.966;2022-11-13T16:06:48;16.37;;;8.40;;
16890;SDS011;8562;52.246;20.966;2022-11-13T16:09:33;16.23;;;8.97;;
16890;SDS011;8562;52.246;20.966;2022-11-13T16:12:17;15.80;;;7.67;;
16890;SDS011;8562;52.246;20.966;2022-11-13T16:15:02;15.07;;;9.07;;
16890;SDS011;8562;52.246;20.966;2022-11-13T16:17:49;16.33;;;9.77;;
16890;SDS011;8562;52.246;20.966;2022-11-13T16:20:34;14.57;;;9.17;;
16890;SDS011;8562;52.246;20.966;2022-11-13T16:23:19;14.53;;;9.30;;
16890;SDS011;8562;52.246;20.966;2022-11-13T16:26:04;13.80;;;8.20;;
16890;SDS011;8562;52.246;20.966;2022-11-13T16:28:50;18.47;;;10.37;;
16890;SDS011;8562;52.246;20.966;2022-11-13T16:31:35;14.43;;;9.00;;
16890;SDS011;8562;52.246;20.966;2022-11-13T16:34:20;15.90;;;9.10;;
16890;SDS011;8562;52.246;20.966;2022-11-13T16:37:10;18.73;;;9.03;;
16890;SDS011;8562;52.246;20.966;2022-11-13T16:39:56;20.23;;;8.90;;
16890;SDS011;8562;52.246;20.966;2022-11-13T16:42:41;16.70;;;9.40;;
16890;SDS011;8562;52.246;20.966;2022-11-13T16:45:25;15.27;;;9.57;;
16890;SDS011;8562;52.246;20.966;2022-11-13T16:48:13;17.83;;;9.70;;
16890;SDS011;8562;52.246;20.966;2022-11-13T16:50:58;16.50;;;8.43;;
16890;SDS011;8562;52.246;20.966;2022-11-13T16:53:42;16.37;;;9.20;;
16890;SDS011;8562;52.246;20.966;2022-11-13T16:56:28;16.67;;;7.63;;
16890;SDS011;8562;52.246;20.966;2022-11-13T16:59:13;13.43;;;7.80;;
16890;SDS011;8562;52.246;20.966;2022-11-13T17:01:57;16.07;;;9.07;;
16890;SDS011;8562;52.246;20.966;2022-11-13T17:04:42;14.20;;;7.43;;
16890;SDS011;8562;52.246;20.966;2022-11-13T17:07:27;13.13;;;7.83;;
16890;SDS011;8562;52.246;20.966;2022-11-13T17:10:12;13.33;;;7.40;;
16890;SDS011;8562;52.246;20.966;2022-11-13T17:12:57;16.17;;;6.97;;
16890;SDS011;8562;52.246;20.966;2022-11-13T17:15:42;10.70;;;7.17;;
16890;SDS011;8562;52.246;20.966;2022-11-13T17:18:26;12.10;;;7.00;;
16890;SDS011;8562;52.246;20.966;2022-11-13T17:21:11;18.50;;;8.30;;
16890;SDS011;8562;52.246;20.966;2022-11-13T17:23:56;13.40;;;7.57;;
16890;SDS011;8562;52.246;20.966;2022-11-13T17:26:40;14.50;;;7.57;;
16890;SDS011;8562;52.246;20.966;2022-11-13T17:29:25;11.77;;;6.70;;
16890;SDS011;8562;52.246;20.966;2022-11-13T17:32:10;17.70;;;8.40;;
16890;SDS011;8562;52.246;20.966;2022-11-13T17:34:55;15.27;;;7.90;;
16890;SDS011;8562;52.246;20.966;2022-11-13T17:37:39;17.67;;;9.60;;
16890;SDS011;8562;52.246;20.966;2022-11-13T17:40:24;19.83;;;10.50;;